createdAt,value
2023-04-02T00:02:21.030Z,99.90
2023-04-02T00:05:06.593Z,99.90
2023-04-02T00:07:33.758Z,99.90
2023-04-02T00:10:00.581Z,99.90
2023-04-02T00:12:27.313Z,99.90
2023-04-02T00:14:55.676Z,99.90
2023-04-02T00:17:25.442Z,99.90
2023-04-02T00:20:15.338Z,99.90
2023-04-02T00:22:44.116Z,99.90
2023-04-02T00:25:13.434Z,99.90
2023-04-02T00:27:40.783Z,99.90
2023-04-02T00:30:08.824Z,99.90
2023-04-02T00:32:36.567Z,99.90
2023-04-02T00:35:03.645Z,99.90
2023-04-02T00:37:39.016Z,99.90
2023-04-02T00:40:15.424Z,99.90
2023-04-02T00:42:42.863Z,99.90
2023-04-02T00:45:18.866Z,99.90
2023-04-02T00:47:45.629Z,99.90
2023-04-02T00:50:12.369Z,99.90
2023-04-02T00:52:41.524Z,99.90
2023-04-02T00:55:13.551Z,99.90
2023-04-02T00:57:45.180Z,99.90
2023-04-02T01:00:16.128Z,99.90
2023-04-02T01:02:42.986Z,99.90
2023-04-02T01:05:15.140Z,99.90
2023-04-02T01:07:42.304Z,99.90
2023-04-02T01:10:14.971Z,99.90
2023-04-02T01:12:41.814Z,99.90
2023-04-02T01:15:12.851Z,99.90
2023-04-02T01:17:42.986Z,99.90
2023-04-02T01:20:28.071Z,99.90
2023-04-02T01:23:02.527Z,99.90
2023-04-02T01:25:34.821Z,99.90
2023-04-02T01:28:19.585Z,99.90
2023-04-02T01:30:52.364Z,99.90
2023-04-02T01:33:23.195Z,99.90
2023-04-02T01:35:55.533Z,99.90
2023-04-02T01:38:28.141Z,99.90
2023-04-02T01:41:15.072Z,99.90
2023-04-02T01:43:57.077Z,99.90
2023-04-02T01:46:28.329Z,99.90
2023-04-02T01:48:56.648Z,99.90
2023-04-02T01:51:28.231Z,99.90
2023-04-02T01:53:55.441Z,99.90
2023-04-02T01:56:22.658Z,99.90
2023-04-02T01:58:49.596Z,99.90
2023-04-02T02:01:21.742Z,99.90
2023-04-02T02:03:49.681Z,99.90
2023-04-02T02:06:17.643Z,99.90
2023-04-02T02:08:54.741Z,99.90
2023-04-02T02:11:23.048Z,99.90
2023-04-02T02:14:06.773Z,99.80
2023-04-02T02:16:41.746Z,99.90
2023-04-02T02:19:18.305Z,99.90
2023-04-02T02:21:47.241Z,99.90
2023-04-02T02:24:28.607Z,99.90
2023-04-02T02:27:07.326Z,99.90
2023-04-02T02:29:36.572Z,99.90
2023-04-02T02:32:04.779Z,99.90
2023-04-02T02:34:36.353Z,99.90
2023-04-02T02:37:06.662Z,99.90
2023-04-02T02:39:36.843Z,99.90
2023-04-02T02:42:24.378Z,99.90
2023-04-02T02:44:52.228Z,99.90
2023-04-02T02:47:22.256Z,99.90
2023-04-02T02:49:51.404Z,99.90
2023-04-02T02:52:31.740Z,99.90
2023-04-02T02:54:59.930Z,99.90
2023-04-02T02:57:32.216Z,99.90
2023-04-02T03:00:00.771Z,99.90
2023-04-02T03:02:28.252Z,99.90
2023-04-02T03:04:55.877Z,99.90
2023-04-02T03:07:25.720Z,99.90
2023-04-02T03:10:11.010Z,99.90
2023-04-02T03:12:49.112Z,99.90
2023-04-02T03:15:38.371Z,99.90
2023-04-02T03:18:34.826Z,99.90
2023-04-02T03:21:07.848Z,99.90
2023-04-02T03:23:43.050Z,99.90
2023-04-02T03:26:22.807Z,99.90
2023-04-02T03:28:55.817Z,99.90
2023-04-02T03:31:26.620Z,99.90
2023-04-02T03:34:07.736Z,99.90
2023-04-02T03:36:38.428Z,99.90
2023-04-02T03:39:25.370Z,99.90
2023-04-02T03:41:55.192Z,99.90
2023-04-02T03:44:21.959Z,99.90
2023-04-02T03:46:58.205Z,99.90
2023-04-02T03:49:40.757Z,99.90
2023-04-02T03:52:10.603Z,99.90
2023-04-02T03:54:37.955Z,99.90
2023-04-02T03:57:05.413Z,99.90
2023-04-02T03:59:41.499Z,99.90
2023-04-02T04:02:08.253Z,99.90
2023-04-02T04:04:39.818Z,99.90
2023-04-02T04:07:09.419Z,99.90
2023-04-02T04:09:37.247Z,99.90
2023-04-02T04:12:07.034Z,99.90
2023-04-02T04:14:35.606Z,99.90
2023-04-02T04:17:09.434Z,99.90
2023-04-02T04:19:45.549Z,99.90
2023-04-02T04:22:19.839Z,99.90
2023-04-02T04:24:47.713Z,99.90
2023-04-02T04:27:34.634Z,99.90
2023-04-02T04:30:06.095Z,99.90
2023-04-02T04:32:39.175Z,99.90
2023-04-02T04:35:14.245Z,99.90
2023-04-02T04:37:43.417Z,99.90
2023-04-02T04:40:11.324Z,99.90
2023-04-02T04:42:39.965Z,99.90
2023-04-02T04:45:11.575Z,99.90
2023-04-02T04:47:51.442Z,99.90
2023-04-02T04:50:35.792Z,99.90
2023-04-02T04:53:06.810Z,99.90
2023-04-02T04:55:42.908Z,99.90
2023-04-02T04:58:28.044Z,99.90
2023-04-02T05:00:54.695Z,99.90
2023-04-02T05:03:34.543Z,99.90
2023-04-02T05:06:05.614Z,99.90
2023-04-02T05:08:35.009Z,99.90
2023-04-02T05:11:03.585Z,99.90
2023-04-02T05:13:42.653Z,99.90
2023-04-02T05:16:13.697Z,99.90
2023-04-02T05:18:42.354Z,99.90
2023-04-02T05:21:24.289Z,99.90
2023-04-02T05:23:54.409Z,99.90
2023-04-02T05:26:33.349Z,99.90
2023-04-02T05:29:09.260Z,99.90
2023-04-02T05:31:54.703Z,99.90
2023-04-02T05:34:27.271Z,99.90
2023-04-02T05:36:55.749Z,99.90
2023-04-02T05:39:23.664Z,99.90
2023-04-02T05:41:58.163Z,98.50
2023-04-02T05:44:27.567Z,99.10
2023-04-02T05:46:57.380Z,98.50
2023-04-02T05:49:31.960Z,98.90
2023-04-02T05:52:00.801Z,97.80
2023-04-02T05:54:37.708Z,98.80
2023-04-02T05:57:07.946Z,97.70
2023-04-02T05:59:38.592Z,96.20
2023-04-02T06:02:17.506Z,97.20
2023-04-02T06:04:47.368Z,97.00
2023-04-02T06:07:24.221Z,96.20
2023-04-02T06:09:55.435Z,95.70
2023-04-02T06:12:29.073Z,95.30
2023-04-02T06:14:56.074Z,94.70
2023-04-02T06:17:23.044Z,93.70
2023-04-02T06:19:51.631Z,93.30
2023-04-02T06:22:27.128Z,93.40
2023-04-02T06:25:17.035Z,92.80
2023-04-02T06:27:45.577Z,93.30
2023-04-02T06:30:18.637Z,92.40
2023-04-02T06:32:45.503Z,92.00
2023-04-02T06:35:16.067Z,91.40
2023-04-02T06:37:47.217Z,90.20
2023-04-02T06:40:35.883Z,90.40
2023-04-02T06:43:06.365Z,88.70
2023-04-02T06:45:35.504Z,86.90
2023-04-02T06:48:03.697Z,86.90
2023-04-02T06:50:43.016Z,87.30
2023-04-02T06:53:18.382Z,88.90
2023-04-02T06:55:47.674Z,87.50
2023-04-02T06:58:15.727Z,87.00
2023-04-02T07:00:47.177Z,86.40
2023-04-02T07:03:16.285Z,83.20
2023-04-02T07:05:43.249Z,83.10
2023-04-02T07:08:10.188Z,85.90
2023-04-02T07:10:37.222Z,88.30
2023-04-02T07:13:04.284Z,88.70
2023-04-02T07:15:31.331Z,85.70
2023-04-02T07:17:59.421Z,86.80
2023-04-02T07:20:27.195Z,88.00
2023-04-02T07:22:54.276Z,88.30
2023-04-02T07:25:21.035Z,88.90
2023-04-02T07:27:48.165Z,88.30
2023-04-02T07:30:15.062Z,87.70
2023-04-02T07:32:42.272Z,87.60
2023-04-02T07:35:10.250Z,86.40
2023-04-02T07:37:38.274Z,83.00
2023-04-02T07:40:12.074Z,82.10
2023-04-02T07:42:38.844Z,77.50
2023-04-02T07:45:06.259Z,74.40
2023-04-02T07:47:33.124Z,77.30
2023-04-02T07:49:59.867Z,77.40
2023-04-02T07:52:26.579Z,74.40
2023-04-02T07:54:53.285Z,71.30
2023-04-02T07:57:20.676Z,69.90
2023-04-02T07:59:47.483Z,67.60
2023-04-02T08:02:18.637Z,67.60
2023-04-02T08:04:45.516Z,68.70
2023-04-02T08:07:12.393Z,69.50
2023-04-02T08:09:39.125Z,72.60
2023-04-02T08:12:06.146Z,71.90
2023-04-02T08:14:32.838Z,69.80
2023-04-02T08:16:59.671Z,67.40
2023-04-02T08:19:26.528Z,63.30
2023-04-02T08:21:54.464Z,61.30
2023-04-02T08:24:21.518Z,61.40
2023-04-02T08:26:48.860Z,58.80
2023-04-02T08:29:16.145Z,56.90
2023-04-02T08:31:42.899Z,58.30
2023-04-02T08:34:09.842Z,58.90
2023-04-02T08:36:38.067Z,60.20
2023-04-02T08:39:05.793Z,56.00
2023-04-02T08:42:01.998Z,55.10
2023-04-02T08:44:38.026Z,53.00
2023-04-02T08:47:06.004Z,52.30
2023-04-02T08:49:36.420Z,51.60
2023-04-02T08:52:03.226Z,50.60
2023-04-02T08:54:31.773Z,51.10
2023-04-02T08:56:58.598Z,49.60
2023-04-02T08:59:28.192Z,49.60
2023-04-02T09:01:59.227Z,50.20
2023-04-02T09:04:27.156Z,50.60
2023-04-02T09:06:55.537Z,49.60
2023-04-02T09:09:22.727Z,48.40
2023-04-02T09:11:54.673Z,47.90
2023-04-02T09:14:24.881Z,48.30
2023-04-02T09:16:53.112Z,47.50
2023-04-02T09:19:19.807Z,48.30
2023-04-02T09:22:06.006Z,48.10
2023-04-02T09:24:32.840Z,48.40
2023-04-02T09:26:59.831Z,47.00
2023-04-02T09:29:26.569Z,46.30
2023-04-02T09:32:02.496Z,46.00
2023-04-02T09:34:33.319Z,45.60
2023-04-02T09:37:07.893Z,45.50
2023-04-02T09:39:35.679Z,45.70
2023-04-02T09:42:06.249Z,46.30
2023-04-02T09:44:33.472Z,45.70
2023-04-02T09:47:03.734Z,44.40
2023-04-02T09:49:38.483Z,44.40
2023-04-02T09:52:07.305Z,44.40
2023-04-02T09:54:34.210Z,45.40
2023-04-02T09:57:02.309Z,45.80
2023-04-02T09:59:29.339Z,44.50
2023-04-02T10:01:56.063Z,44.50
2023-04-02T10:04:31.974Z,44.30
2023-04-02T10:06:59.153Z,41.90
2023-04-02T10:09:29.859Z,42.10
2023-04-02T10:11:57.382Z,43.10
2023-04-02T10:14:26.116Z,43.60
2023-04-02T10:17:15.073Z,43.10
2023-04-02T10:19:50.620Z,42.80
2023-04-02T10:22:19.136Z,42.70
2023-04-02T10:24:46.213Z,43.60
2023-04-02T10:27:31.364Z,44.30
2023-04-02T10:30:05.215Z,44.80
2023-04-02T10:32:46.632Z,45.10
2023-04-02T10:35:17.944Z,46.20
2023-04-02T10:38:03.027Z,46.10
2023-04-02T10:40:38.013Z,46.20
2023-04-02T10:43:23.448Z,45.40
2023-04-02T10:45:56.681Z,46.80
2023-04-02T10:48:26.176Z,47.70
2023-04-02T10:50:59.321Z,46.50
2023-04-02T10:53:32.945Z,46.50
2023-04-02T10:56:03.638Z,46.10
2023-04-02T10:58:31.810Z,46.70
2023-04-02T11:01:01.091Z,47.90
2023-04-02T11:03:41.679Z,47.90
2023-04-02T11:06:14.204Z,49.30
2023-04-02T11:08:42.290Z,52.10
2023-04-02T11:11:38.085Z,55.40
2023-04-02T11:14:04.786Z,57.00
2023-04-02T11:16:31.991Z,55.60
2023-04-02T11:19:16.944Z,55.60
2023-04-02T11:21:57.181Z,55.20
2023-04-02T11:24:34.197Z,54.40
2023-04-02T11:27:06.729Z,54.60
2023-04-02T11:29:34.878Z,53.70
2023-04-02T11:32:20.660Z,52.20
2023-04-02T11:34:56.362Z,56.20
2023-04-02T11:37:41.147Z,99.90
2023-04-02T11:40:07.856Z,51.90
2023-04-02T11:42:35.846Z,63.60
2023-04-02T11:45:24.068Z,62.00
2023-04-02T11:48:00.008Z,57.90
2023-04-02T11:50:29.743Z,63.80
2023-04-02T11:52:59.855Z,59.50
2023-04-02T11:55:27.965Z,69.30
2023-04-02T11:58:02.342Z,99.90
2023-04-02T12:00:42.203Z,61.30
2023-04-02T12:03:29.817Z,60.30
2023-04-02T12:05:58.685Z,55.30
2023-04-02T12:08:31.400Z,53.60
2023-04-02T12:10:58.125Z,53.30
2023-04-02T12:13:39.855Z,53.90
2023-04-02T12:16:07.395Z,60.90
2023-04-02T12:18:34.332Z,51.70
2023-04-02T12:21:01.321Z,50.80
2023-04-02T12:23:32.152Z,55.50
2023-04-02T12:26:00.126Z,56.40
2023-04-02T12:28:28.994Z,60.30
2023-04-02T12:31:08.138Z,56.30
2023-04-02T12:33:37.610Z,56.30
2023-04-02T12:36:06.670Z,55.40
2023-04-02T12:38:34.589Z,53.80
2023-04-02T12:41:03.800Z,54.30
2023-04-02T12:43:34.772Z,55.60
2023-04-02T12:46:03.139Z,56.20
2023-04-02T12:48:30.498Z,55.40
2023-04-02T12:50:57.484Z,55.50
2023-04-02T12:53:26.288Z,56.60
2023-04-02T12:55:53.591Z,53.00
2023-04-02T12:58:28.215Z,53.10
2023-04-02T13:01:13.531Z,62.60
2023-04-02T13:03:40.533Z,55.80
2023-04-02T13:06:33.585Z,52.90
2023-04-02T13:09:01.222Z,52.80
2023-04-02T13:11:39.094Z,53.50
2023-04-02T13:14:07.710Z,55.70
2023-04-02T13:16:36.219Z,56.60
2023-04-02T13:19:11.347Z,53.80
2023-04-02T13:21:38.653Z,53.60
2023-04-02T13:24:05.652Z,53.60
2023-04-02T13:26:32.416Z,53.20
2023-04-02T13:29:19.594Z,52.20
2023-04-02T13:31:46.418Z,52.40
2023-04-02T13:34:13.181Z,55.30
2023-04-02T13:36:39.965Z,55.20
2023-04-02T13:39:07.092Z,57.40
2023-04-02T13:41:36.616Z,50.10
2023-04-02T13:44:03.663Z,50.00
2023-04-02T13:46:31.589Z,50.20
2023-04-02T13:48:58.804Z,50.30
2023-04-02T13:51:35.775Z,52.80
2023-04-02T13:54:03.876Z,49.90
2023-04-02T13:56:31.199Z,50.10
2023-04-02T13:58:57.921Z,49.40
2023-04-02T14:01:25.262Z,50.70
2023-04-02T14:03:53.102Z,50.20
2023-04-02T14:06:26.594Z,53.40
2023-04-02T14:08:56.313Z,50.70
2023-04-02T14:11:29.142Z,50.50
2023-04-02T14:14:14.548Z,50.20
2023-04-02T14:16:44.238Z,49.20
2023-04-02T14:19:29.519Z,48.60
2023-04-02T14:22:00.963Z,49.80
2023-04-02T14:24:33.907Z,49.90
2023-04-02T14:27:09.666Z,49.50
2023-04-02T14:29:56.716Z,49.40
2023-04-02T14:32:23.552Z,49.50
2023-04-02T14:35:07.399Z,49.50
2023-04-02T14:37:34.123Z,50.60
2023-04-02T14:40:13.575Z,50.10
2023-04-02T14:42:59.156Z,49.30
2023-04-02T14:45:28.626Z,49.80
2023-04-02T14:47:59.614Z,48.70
2023-04-02T14:50:29.064Z,48.70
2023-04-02T14:52:58.235Z,49.80
2023-04-02T14:55:36.294Z,49.60
2023-04-02T14:58:05.019Z,52.40
2023-04-02T15:00:58.053Z,60.10
2023-04-02T15:03:24.962Z,58.00
2023-04-02T15:05:57.714Z,56.30
2023-04-02T15:08:26.551Z,59.90
2023-04-02T15:10:56.341Z,56.40
2023-04-02T15:13:27.310Z,57.10
2023-04-02T15:15:58.873Z,55.00
2023-04-02T15:18:25.644Z,53.70
2023-04-02T15:21:00.469Z,53.70
2023-04-02T15:23:45.735Z,54.50
2023-04-02T15:26:21.732Z,55.40
2023-04-02T15:28:53.775Z,57.60
2023-04-02T15:31:21.236Z,60.10
2023-04-02T15:33:57.200Z,63.20
2023-04-02T15:36:46.868Z,63.60
2023-04-02T15:39:32.390Z,64.20
2023-04-02T15:42:05.428Z,64.10
2023-04-02T15:44:33.461Z,64.20
2023-04-02T15:47:19.798Z,65.00
2023-04-02T15:49:59.315Z,65.10
2023-04-02T15:52:33.384Z,66.60
2023-04-02T15:55:00.773Z,66.50
2023-04-02T15:57:46.640Z,66.70
2023-04-02T16:00:22.555Z,67.60
2023-04-02T16:03:07.831Z,68.30
2023-04-02T16:05:40.455Z,69.20
2023-04-02T16:08:09.218Z,68.80
2023-04-02T16:10:42.089Z,68.80
2023-04-02T16:13:36.488Z,69.80
2023-04-02T16:16:05.293Z,70.40
2023-04-02T16:18:32.025Z,68.20
2023-04-02T16:21:01.655Z,68.20
2023-04-02T16:23:32.185Z,67.60
2023-04-02T16:26:21.924Z,66.90
2023-04-02T16:28:59.146Z,65.90
2023-04-02T16:31:33.940Z,66.20
2023-04-02T16:34:21.010Z,66.40
2023-04-02T16:37:03.451Z,66.70
2023-04-02T16:39:42.259Z,67.10
2023-04-02T16:42:17.382Z,67.20
2023-04-02T16:44:50.415Z,67.00
2023-04-02T16:47:17.188Z,67.70
2023-04-02T16:50:10.294Z,67.70
2023-04-02T16:53:00.143Z,67.90
2023-04-02T16:55:46.092Z,68.30
2023-04-02T16:58:12.839Z,67.90
2023-04-02T17:00:48.226Z,67.60
2023-04-02T17:03:24.088Z,67.50
2023-04-02T17:05:54.092Z,66.90
2023-04-02T17:08:30.002Z,67.10
2023-04-02T17:11:01.329Z,66.20
2023-04-02T17:13:34.051Z,65.30
2023-04-02T17:16:07.315Z,65.70
2023-04-02T17:18:34.850Z,63.80
2023-04-02T17:21:06.642Z,61.90
2023-04-02T17:23:49.430Z,57.20
2023-04-02T17:26:24.426Z,55.80
2023-04-02T17:28:51.552Z,54.80
2023-04-02T17:31:33.968Z,54.40
2023-04-02T17:34:05.784Z,52.80
2023-04-02T17:36:32.985Z,52.50
2023-04-02T17:39:08.339Z,52.10
2023-04-02T17:41:38.317Z,52.00
2023-04-02T17:44:08.084Z,52.40
2023-04-02T17:46:37.713Z,51.60
2023-04-02T17:49:07.129Z,51.50
2023-04-02T17:51:44.418Z,51.90
2023-04-02T17:54:14.130Z,52.30
2023-04-02T17:56:40.968Z,52.20
2023-04-02T17:59:27.106Z,51.80
2023-04-02T18:01:53.835Z,51.70
2023-04-02T18:04:20.640Z,51.90
2023-04-02T18:06:59.638Z,51.50
2023-04-02T18:09:26.312Z,51.50
2023-04-02T18:12:00.544Z,51.40
2023-04-02T18:14:31.136Z,51.70
2023-04-02T18:16:58.066Z,51.80
2023-04-02T18:19:33.973Z,51.70
2023-04-02T18:22:07.112Z,51.60
2023-04-02T18:24:36.871Z,51.40
2023-04-02T18:27:06.330Z,51.50
2023-04-02T18:29:49.264Z,52.20
2023-04-02T18:32:42.166Z,52.20
2023-04-02T18:35:11.641Z,52.40
2023-04-02T18:37:57.217Z,53.00
2023-04-02T18:40:41.882Z,52.50
2023-04-02T18:43:16.013Z,52.80
2023-04-02T18:45:45.855Z,52.70
2023-04-02T18:48:30.785Z,52.80
2023-04-02T18:50:59.193Z,52.90
2023-04-02T18:53:26.549Z,52.60
2023-04-02T18:56:02.728Z,52.90
2023-04-02T18:58:32.246Z,52.60
2023-04-02T19:00:59.274Z,52.90
2023-04-02T19:03:41.539Z,52.70
2023-04-02T19:06:21.203Z,53.10
2023-04-02T19:08:57.369Z,53.10
2023-04-02T19:11:31.925Z,53.30
2023-04-02T19:13:59.641Z,53.40
2023-04-02T19:16:26.474Z,53.30
2023-04-02T19:19:26.489Z,53.30
2023-04-02T19:22:02.236Z,53.80
2023-04-02T19:24:28.895Z,54.10
2023-04-02T19:27:01.688Z,53.70
2023-04-02T19:29:31.401Z,53.40
2023-04-02T19:32:03.397Z,54.00
2023-04-02T19:34:48.329Z,54.10
2023-04-02T19:37:23.901Z,54.00
2023-04-02T19:39:58.304Z,53.90
2023-04-02T19:42:43.646Z,54.00
2023-04-02T19:45:30.701Z,54.70
2023-04-02T19:47:58.617Z,54.40
2023-04-02T19:50:25.518Z,54.50
2023-04-02T19:52:52.265Z,54.20
2023-04-02T19:55:19.024Z,54.10
2023-04-02T19:57:45.820Z,54.40
2023-04-02T20:00:14.570Z,54.40
2023-04-02T20:02:41.317Z,54.40
2023-04-02T20:05:08.328Z,54.60
2023-04-02T20:07:35.064Z,54.30
2023-04-02T20:10:01.827Z,54.40
2023-04-02T20:12:28.626Z,55.00
2023-04-02T20:14:55.346Z,55.00
2023-04-02T20:17:22.104Z,55.70
2023-04-02T20:19:48.850Z,55.70
2023-04-02T20:22:15.671Z,56.20
2023-04-02T20:24:42.796Z,55.80
2023-04-02T20:27:09.517Z,56.40
2023-04-02T20:29:36.479Z,56.70
2023-04-02T20:32:03.308Z,57.20
2023-04-02T20:34:30.366Z,56.80
2023-04-02T20:36:57.296Z,56.30
2023-04-02T20:39:24.219Z,56.90
2023-04-02T20:41:51.215Z,56.30
2023-04-02T20:44:17.941Z,56.70
2023-04-02T20:46:44.796Z,56.20
2023-04-02T20:49:11.687Z,56.70
2023-04-02T20:51:38.478Z,57.00
2023-04-02T20:54:05.213Z,56.50
2023-04-02T20:56:33.001Z,56.30
2023-04-02T20:58:59.799Z,56.30
2023-04-02T21:01:27.909Z,56.80
2023-04-02T21:03:55.894Z,56.80
2023-04-02T21:06:23.727Z,56.90
2023-04-02T21:08:51.435Z,56.70
2023-04-02T21:11:18.688Z,56.90
2023-04-02T21:13:45.731Z,57.10
2023-04-02T21:16:19.259Z,57.30
2023-04-02T21:18:46.704Z,57.30
2023-04-02T21:21:13.976Z,57.40
2023-04-02T21:23:41.323Z,57.90
2023-04-02T21:26:10.382Z,58.10
2023-04-02T21:28:37.125Z,58.10
2023-04-02T21:31:03.998Z,58.20
2023-04-02T21:33:31.531Z,58.20
2023-04-02T21:36:04.834Z,58.60
2023-04-02T21:38:31.543Z,58.20
2023-04-02T21:40:58.363Z,58.70
2023-04-02T21:43:25.048Z,58.90
2023-04-02T21:45:52.408Z,58.90
2023-04-02T21:48:19.097Z,59.00
2023-04-02T21:50:46.283Z,59.30
2023-04-02T21:53:12.984Z,59.60
2023-04-02T21:55:39.689Z,59.90
2023-04-02T21:58:06.425Z,60.10
2023-04-02T22:00:33.136Z,60.30
2023-04-02T22:02:59.993Z,60.50
2023-04-02T22:05:28.985Z,60.50
2023-04-02T22:07:55.884Z,60.70
2023-04-02T22:10:22.667Z,61.20
2023-04-02T22:12:49.412Z,61.10
2023-04-02T22:15:16.256Z,61.50
2023-04-02T22:17:43.069Z,61.70
2023-04-02T22:20:10.727Z,61.90
2023-04-02T22:22:37.548Z,62.00
2023-04-02T22:25:04.430Z,62.10
2023-04-02T22:27:31.156Z,62.60
2023-04-02T22:29:57.834Z,62.50
2023-04-02T22:32:24.597Z,62.90
2023-04-02T22:34:51.591Z,63.20
2023-04-02T22:37:18.299Z,63.60
2023-04-02T22:39:44.982Z,63.70
2023-04-02T22:42:11.702Z,63.70
2023-04-02T22:44:38.638Z,64.30
2023-04-02T22:47:05.764Z,63.90
2023-04-02T22:49:32.525Z,64.30
2023-04-02T22:51:59.244Z,64.30
2023-04-02T22:54:25.929Z,65.00
2023-04-02T22:56:52.808Z,65.60
2023-04-02T22:59:19.543Z,65.60
2023-04-02T23:01:46.419Z,66.00
2023-04-02T23:04:13.289Z,66.10
2023-04-02T23:06:40.055Z,66.00
2023-04-02T23:09:06.775Z,66.60
2023-04-02T23:11:33.538Z,66.90
2023-04-02T23:14:00.323Z,66.60
2023-04-02T23:16:28.384Z,67.20
2023-04-02T23:18:55.530Z,67.80
2023-04-02T23:21:22.381Z,68.10
2023-04-02T23:23:50.445Z,68.10
2023-04-02T23:26:21.798Z,68.50
2023-04-02T23:28:49.669Z,68.90
2023-04-02T23:31:18.198Z,69.00
2023-04-02T23:33:45.525Z,69.70
2023-04-02T23:36:20.983Z,69.80
2023-04-02T23:38:47.858Z,70.40
2023-04-02T23:41:15.433Z,71.00
2023-04-02T23:43:42.199Z,71.10
2023-04-02T23:46:09.009Z,71.70
2023-04-02T23:48:35.812Z,71.80
2023-04-02T23:51:02.804Z,72.00
2023-04-02T23:53:29.536Z,73.00
2023-04-02T23:55:56.244Z,73.00
2023-04-02T23:58:23.073Z,74.10
